Alexander 3 — SW6137 — position and weather

sailwx.info

Track history (hours):
 
Tides and Currents Weather Stations Pressure Air Temp Water Temp Dewpoint Dewpoint Depression Visibility Wind Speed Wind Dir Waves Ship Positions

Alexander 3

Last reported at 2017-Jan-20 19:33 UTC. Time now 2017-Jan-20 20:12 UTC.
Position N 37°58' E 023°24'.

Length 38 m; draft 5.6 m.

Type: Tug. MMSI: 240733000.

Date/timePositionNaut miles runAvg speedWind from/ knotsBaromVisibWave heightAir tempDewpointWater temp
2017-Jan-20 19:33N 37°58' E 023°24'0 0.0
2017-Jan-20 18:34N 37°58' E 023°24'0 0.0
2017-Jan-20 17:33N 37°58' E 023°24'0 0.0
2017-Jan-20 16:33N 37°58' E 023°24'0 0.0
2017-Jan-20 15:33N 37°58' E 023°24'0 0.0
2017-Jan-20 14:33N 37°58' E 023°24'0 0.0
2017-Jan-20 13:34N 37°58' E 023°24'0 0.0
2017-Jan-20 12:33N 37°58' E 023°24'0 0.0
2017-Jan-20 11:33N 37°58' E 023°24'0 0.0
2017-Jan-20 10:33N 37°58' E 023°24'0 0.0
2017-Jan-20 09:33N 37°58' E 023°24'1 1.1
2017-Jan-20 08:33N 37°58' E 023°23'0 0.1
2017-Jan-20 07:33N 37°58' E 023°23'2 1.7
2017-Jan-20 06:33N 37°57' E 023°22'5 4.8
2017-Jan-20 05:33N 37°60' E 023°27'4 4.0
2017-Jan-20 04:33N 38°02' E 023°31'0 0.0
2017-Jan-20 03:34N 38°02' E 023°31'0 0.0
2017-Jan-20 02:33N 38°02' E 023°31'0 0.0
2017-Jan-20 01:34N 38°02' E 023°31'0 0.0
2017-Jan-20 00:34N 38°02' E 023°31'0 0.0
2017-Jan-19 23:33N 38°02' E 023°31'0 0.0
2017-Jan-19 22:34N 38°02' E 023°31'0 0.0
2017-Jan-19 21:34N 38°02' E 023°31'0 0.0
2017-Jan-19 20:33N 38°02' E 023°31'0 0.0
2017-Jan-19 19:33N 38°02' E 023°31'0 0.0
2017-Jan-19 18:33N 38°02' E 023°31'0 0.0
2017-Jan-19 17:33N 38°02' E 023°31'0 0.0
2017-Jan-19 16:33N 38°02' E 023°31'0 0.0
2017-Jan-19 15:33N 38°02' E 023°31'0 0.0
2017-Jan-19 14:33N 38°02' E 023°31'0 0.0
2017-Jan-19 13:33N 38°02' E 023°31'0 0.0
2017-Jan-19 12:34N 38°02' E 023°31'0 0.0
2017-Jan-19 11:34N 38°02' E 023°31'0 0.0
2017-Jan-19 10:33N 38°02' E 023°31'0 0.0
2017-Jan-19 09:33N 38°02' E 023°31'0 0.0
2017-Jan-19 08:33N 38°02' E 023°31'0 0.0
2017-Jan-19 07:33N 38°02' E 023°31'0 0.0
2017-Jan-19 06:33N 38°02' E 023°31'0 0.0
2017-Jan-19 05:33N 38°02' E 023°31'0 0.0
2017-Jan-19 04:33N 38°02' E 023°31'0 0.0
2017-Jan-19 03:33N 38°02' E 023°31'0 0.0
2017-Jan-19 02:33N 38°02' E 023°31'0 0.0
2017-Jan-19 01:33N 38°02' E 023°31'0 0.0
2017-Jan-19 00:33N 38°02' E 023°31'0 0.0
2017-Jan-18 23:33N 38°02' E 023°31'0 0.0
2017-Jan-18 22:33N 38°02' E 023°31'0 0.0
2017-Jan-18 21:33N 38°02' E 023°31'0 0.0
2017-Jan-18 20:33N 38°02' E 023°31'0 0.0
2017-Jan-18 19:33N 38°02' E 023°31'0 0.0
2017-Jan-18 18:34N 38°02' E 023°31'0 0.0
2017-Jan-18 17:34N 38°02' E 023°31'0 0.0
2017-Jan-18 16:33N 38°02' E 023°31'0 0.2
2017-Jan-18 15:34N 38°02' E 023°31'0 0.2
2017-Jan-18 14:33N 38°02' E 023°31'0 0.0
2017-Jan-18 13:33N 38°02' E 023°31'0 0.0
2017-Jan-18 12:33N 38°02' E 023°31'0 0.0
2017-Jan-18 11:33N 38°02' E 023°31'0 0.0
2017-Jan-18 10:33N 38°02' E 023°31'0 0.0
2017-Jan-18 09:33N 38°02' E 023°31'0 0.0
2017-Jan-18 08:33N 38°02' E 023°31'0 0.2
2017-Jan-18 07:33N 38°02' E 023°31'3 3.2
2017-Jan-18 06:33N 37°59' E 023°33'5 4.8
2017-Jan-18 05:33N 37°56' E 023°37'0 0.0
2017-Jan-18 04:33N 37°56' E 023°37'0 0.0
2017-Jan-18 03:33N 37°56' E 023°37'0 0.0
2017-Jan-18 02:33N 37°56' E 023°37'0 0.0
2017-Jan-18 01:33N 37°56' E 023°37'0 0.0
2017-Jan-18 00:33N 37°56' E 023°37'0 0.0
2017-Jan-17 23:33N 37°56' E 023°37'0 0.0
2017-Jan-17 22:33N 37°56' E 023°37'0 0.0
2017-Jan-17 21:33N 37°56' E 023°37'2 1.9
2017-Jan-17 20:34N 37°57' E 023°35'2 1.9
2017-Jan-17 19:33N 37°56' E 023°37'0 0.0
2017-Jan-17 18:33N 37°56' E 023°37'0 0.0
2017-Jan-17 17:33N 37°56' E 023°37'0 0.0
2017-Jan-17 16:33N 37°56' E 023°37'0 0.0
2017-Jan-17 15:33N 37°56' E 023°37'0 0.0
2017-Jan-17 14:33N 37°56' E 023°37'0 0.0
2017-Jan-17 13:33N 37°56' E 023°37'0 0.0
2017-Jan-17 12:33N 37°56' E 023°37'1 0.8
2017-Jan-17 11:33N 37°57' E 023°37'5 4.7
2017-Jan-17 10:33N 38°00' E 023°33'2 2.4
2017-Jan-17 09:33N 38°02' E 023°31'4 3.8
2017-Jan-17 08:33N 38°02' E 023°35'3 3.2
2017-Jan-17 07:33N 38°02' E 023°31'7 6.9
2017-Jan-17 06:33N 37°58' E 023°24'4 3.8
2017-Jan-17 05:33N 37°54' E 023°23'8 8.3
2017-Jan-17 04:33N 37°55' E 023°33'4 0.1
2017-Jan-15 21:33N 37°56' E 023°37'2 1.9
2017-Jan-15 20:33N 37°57' E 023°35'1 0.5
2017-Jan-15 19:33N 37°57' E 023°36'0 0.3
2017-Jan-15 18:34N 37°57' E 023°36'0 0.0
2017-Jan-15 17:33N 37°57' E 023°36'0 0.0
2017-Jan-15 16:33N 37°57' E 023°36'0 0.0
2017-Jan-15 15:33N 37°57' E 023°36'0 0.0
2017-Jan-15 14:34N 37°57' E 023°36'0 0.0
2017-Jan-15 13:33N 37°57' E 023°36'0 0.0
2017-Jan-15 12:33N 37°57' E 023°36'0 0.0
2017-Jan-15 11:33N 37°57' E 023°36'0 0.0
2017-Jan-15 10:34N 37°57' E 023°36'0 0.0
2017-Jan-15 09:34N 37°57' E 023°36'0 0.0
2017-Jan-15 08:34N 37°57' E 023°36'0 0.0
2017-Jan-15 07:33N 37°57' E 023°36'0 0.0
2017-Jan-15 06:34N 37°57' E 023°36'2 2.1
2017-Jan-15 05:33N 37°55' E 023°35'3 2.5
2017-Jan-15 04:33N 37°56' E 023°38'0 0.0
2017-Jan-14 11:34N 37°56' E 023°38'2 2.4
2017-Jan-14 10:34N 37°57' E 023°35'1 0.9
2017-Jan-14 09:33N 37°57' E 023°36'0 0.0
2017-Jan-14 08:33N 37°57' E 023°36'0 0.4
2017-Jan-14 07:34N 37°57' E 023°36'2 1.7
2017-Jan-14 06:34N 37°56' E 023°35'3 2.6
2017-Jan-14 05:33N 37°56' E 023°38'0 0.0
2017-Jan-14 04:33N 37°56' E 023°38'1 0.0
2017-Jan-13 12:34N 37°56' E 023°37'1 0.6
2017-Jan-13 11:34N 37°56' E 023°37'1 1.4
2017-Jan-13 10:34N 37°57' E 023°36'0 0.2
2017-Jan-13 09:34N 37°57' E 023°37'0 0.0
2017-Jan-13 08:33N 37°57' E 023°37'0 0.0
2017-Jan-13 07:33N 37°57' E 023°37'3 2.5
2017-Jan-13 06:34N 37°55' E 023°35'1 1.5
2017-Jan-13 05:33N 37°57' E 023°35'2 2.2
2017-Jan-13 04:34N 37°56' E 023°38'0 0.0
2017-Jan-12 15:34N 37°56' E 023°38'2 1.8
2017-Jan-12 14:33N 37°57' E 023°36'0 0.2
2017-Jan-12 13:33N 37°58' E 023°36'0 0.2
2017-Jan-12 12:33N 37°57' E 023°36'1 0.8
2017-Jan-12 11:33N 37°57' E 023°35'1 1.4
2017-Jan-12 10:33N 37°56' E 023°36'1 1.3
2017-Jan-12 09:33N 37°57' E 023°35'0 0.4
2017-Jan-12 08:33N 37°57' E 023°36'2 1.6
2017-Jan-12 07:33N 37°56' E 023°36'2 1.6
2017-Jan-12 06:33N 37°57' E 023°36'2 2.0
2017-Jan-12 05:33N 37°56' E 023°38'0 0.0
2017-Jan-12 04:33N 37°56' E 023°38'0 0.0
2017-Jan-11 14:05N 37°56' E 023°38'0 0.0
2017-Jan-11 13:33N 37°56' E 023°38'0 0.0
2017-Jan-11 12:33N 37°56' E 023°38'1 0.5
2017-Jan-11 11:33N 37°56' E 023°38'0 0.0
2017-Jan-11 10:33N 37°56' E 023°38'3 2.8
2017-Jan-11 09:33N 37°57' E 023°34'7 7.0
2017-Jan-11 08:33N 37°60' E 023°26'3 2.6
2017-Jan-11 07:33N 37°57' E 023°24'1 0.8
2017-Jan-11 06:33N 37°58' E 023°24'4 3.7
2017-Jan-11 05:33N 38°00' E 023°28'6 6.0
2017-Jan-11 04:33N 38°01' E 023°36'0 0.0
2017-Jan-11 03:33N 38°01' E 023°36'0 0.0
2017-Jan-11 02:34N 38°01' E 023°36'0 0.0
2017-Jan-11 01:33N 38°01' E 023°36'0 0.0
2017-Jan-11 00:33N 38°01' E 023°36'0 0.0
2017-Jan-10 23:34N 38°01' E 023°36'0 0.0
2017-Jan-10 22:33N 38°01' E 023°36'0 0.0
2017-Jan-10 21:33N 38°01' E 023°36'0 0.0
2017-Jan-10 20:33N 38°01' E 023°36'  
Track history (hours):
 
Tides and Currents Weather Stations Pressure Air Temp Water Temp Dewpoint Dewpoint Depression Visibility Wind Speed Wind Dir Waves Ship Positions

Alexander 3

Last reported at 2017-Jan-20 19:33 UTC. Time now 2017-Jan-20 20:12 UTC.
Position N 37°58' E 023°24'.

Length 38 m; draft 5.6 m.

Type: Tug. MMSI: 240733000.

Date/timePositionNaut miles runAvg speedWind from/ knotsBaromVisibWave heightAir tempDewpointWater temp
2017-Jan-20 19:33N 37°58' E 023°24'0 0.0
2017-Jan-20 18:34N 37°58' E 023°24'0 0.0
2017-Jan-20 17:33N 37°58' E 023°24'0 0.0
2017-Jan-20 16:33N 37°58' E 023°24'0 0.0
2017-Jan-20 15:33N 37°58' E 023°24'0 0.0
2017-Jan-20 14:33N 37°58' E 023°24'0 0.0
2017-Jan-20 13:34N 37°58' E 023°24'0 0.0
2017-Jan-20 12:33N 37°58' E 023°24'0 0.0
2017-Jan-20 11:33N 37°58' E 023°24'0 0.0
2017-Jan-20 10:33N 37°58' E 023°24'0 0.0
2017-Jan-20 09:33N 37°58' E 023°24'1 1.1
2017-Jan-20 08:33N 37°58' E 023°23'0 0.1
2017-Jan-20 07:33N 37°58' E 023°23'2 1.7
2017-Jan-20 06:33N 37°57' E 023°22'5 4.8
2017-Jan-20 05:33N 37°60' E 023°27'4 4.0
2017-Jan-20 04:33N 38°02' E 023°31'0 0.0
2017-Jan-20 03:34N 38°02' E 023°31'0 0.0
2017-Jan-20 02:33N 38°02' E 023°31'0 0.0
2017-Jan-20 01:34N 38°02' E 023°31'0 0.0
2017-Jan-20 00:34N 38°02' E 023°31'0 0.0
2017-Jan-19 23:33N 38°02' E 023°31'0 0.0
2017-Jan-19 22:34N 38°02' E 023°31'0 0.0
2017-Jan-19 21:34N 38°02' E 023°31'0 0.0
2017-Jan-19 20:33N 38°02' E 023°31'0 0.0
2017-Jan-19 19:33N 38°02' E 023°31'0 0.0
2017-Jan-19 18:33N 38°02' E 023°31'0 0.0
2017-Jan-19 17:33N 38°02' E 023°31'0 0.0
2017-Jan-19 16:33N 38°02' E 023°31'0 0.0
2017-Jan-19 15:33N 38°02' E 023°31'0 0.0
2017-Jan-19 14:33N 38°02' E 023°31'0 0.0
2017-Jan-19 13:33N 38°02' E 023°31'0 0.0
2017-Jan-19 12:34N 38°02' E 023°31'0 0.0
2017-Jan-19 11:34N 38°02' E 023°31'0 0.0
2017-Jan-19 10:33N 38°02' E 023°31'0 0.0
2017-Jan-19 09:33N 38°02' E 023°31'0 0.0
2017-Jan-19 08:33N 38°02' E 023°31'0 0.0
2017-Jan-19 07:33N 38°02' E 023°31'0 0.0
2017-Jan-19 06:33N 38°02' E 023°31'0 0.0
2017-Jan-19 05:33N 38°02' E 023°31'0 0.0
2017-Jan-19 04:33N 38°02' E 023°31'0 0.0
2017-Jan-19 03:33N 38°02' E 023°31'0 0.0
2017-Jan-19 02:33N 38°02' E 023°31'0 0.0
2017-Jan-19 01:33N 38°02' E 023°31'0 0.0
2017-Jan-19 00:33N 38°02' E 023°31'0 0.0
2017-Jan-18 23:33N 38°02' E 023°31'0 0.0
2017-Jan-18 22:33N 38°02' E 023°31'0 0.0
2017-Jan-18 21:33N 38°02' E 023°31'0 0.0
2017-Jan-18 20:33N 38°02' E 023°31'0 0.0
2017-Jan-18 19:33N 38°02' E 023°31'0 0.0
2017-Jan-18 18:34N 38°02' E 023°31'0 0.0
2017-Jan-18 17:34N 38°02' E 023°31'0 0.0
2017-Jan-18 16:33N 38°02' E 023°31'0 0.2
2017-Jan-18 15:34N 38°02' E 023°31'0 0.2
2017-Jan-18 14:33N 38°02' E 023°31'0 0.0
2017-Jan-18 13:33N 38°02' E 023°31'0 0.0
2017-Jan-18 12:33N 38°02' E 023°31'0 0.0
2017-Jan-18 11:33N 38°02' E 023°31'0 0.0
2017-Jan-18 10:33N 38°02' E 023°31'0 0.0
2017-Jan-18 09:33N 38°02' E 023°31'0 0.0
2017-Jan-18 08:33N 38°02' E 023°31'0 0.2
2017-Jan-18 07:33N 38°02' E 023°31'3 3.2
2017-Jan-18 06:33N 37°59' E 023°33'5 4.8
2017-Jan-18 05:33N 37°56' E 023°37'0 0.0
2017-Jan-18 04:33N 37°56' E 023°37'0 0.0
2017-Jan-18 03:33N 37°56' E 023°37'0 0.0
2017-Jan-18 02:33N 37°56' E 023°37'0 0.0
2017-Jan-18 01:33N 37°56' E 023°37'0 0.0
2017-Jan-18 00:33N 37°56' E 023°37'0 0.0
2017-Jan-17 23:33N 37°56' E 023°37'0 0.0
2017-Jan-17 22:33N 37°56' E 023°37'0 0.0
2017-Jan-17 21:33N 37°56' E 023°37'2 1.9
2017-Jan-17 20:34N 37°57' E 023°35'2 1.9
2017-Jan-17 19:33N 37°56' E 023°37'0 0.0
2017-Jan-17 18:33N 37°56' E 023°37'0 0.0
2017-Jan-17 17:33N 37°56' E 023°37'0 0.0
2017-Jan-17 16:33N 37°56' E 023°37'0 0.0
2017-Jan-17 15:33N 37°56' E 023°37'0 0.0
2017-Jan-17 14:33N 37°56' E 023°37'0 0.0
2017-Jan-17 13:33N 37°56' E 023°37'0 0.0
2017-Jan-17 12:33N 37°56' E 023°37'1 0.8
2017-Jan-17 11:33N 37°57' E 023°37'5 4.7
2017-Jan-17 10:33N 38°00' E 023°33'2 2.4
2017-Jan-17 09:33N 38°02' E 023°31'4 3.8
2017-Jan-17 08:33N 38°02' E 023°35'3 3.2
2017-Jan-17 07:33N 38°02' E 023°31'7 6.9
2017-Jan-17 06:33N 37°58' E 023°24'4 3.8
2017-Jan-17 05:33N 37°54' E 023°23'8 8.3
2017-Jan-17 04:33N 37°55' E 023°33'4 0.1
2017-Jan-15 21:33N 37°56' E 023°37'2 1.9
2017-Jan-15 20:33N 37°57' E 023°35'1 0.5
2017-Jan-15 19:33N 37°57' E 023°36'0 0.3
2017-Jan-15 18:34N 37°57' E 023°36'0 0.0
2017-Jan-15 17:33N 37°57' E 023°36'0 0.0
2017-Jan-15 16:33N 37°57' E 023°36'0 0.0
2017-Jan-15 15:33N 37°57' E 023°36'0 0.0
2017-Jan-15 14:34N 37°57' E 023°36'0 0.0
2017-Jan-15 13:33N 37°57' E 023°36'0 0.0
2017-Jan-15 12:33N 37°57' E 023°36'0 0.0
2017-Jan-15 11:33N 37°57' E 023°36'0 0.0
2017-Jan-15 10:34N 37°57' E 023°36'0 0.0
2017-Jan-15 09:34N 37°57' E 023°36'0 0.0
2017-Jan-15 08:34N 37°57' E 023°36'0 0.0
2017-Jan-15 07:33N 37°57' E 023°36'0 0.0
2017-Jan-15 06:34N 37°57' E 023°36'2 2.1
2017-Jan-15 05:33N 37°55' E 023°35'3 2.5
2017-Jan-15 04:33N 37°56' E 023°38'0 0.0
2017-Jan-14 11:34N 37°56' E 023°38'2 2.4
2017-Jan-14 10:34N 37°57' E 023°35'1 0.9
2017-Jan-14 09:33N 37°57' E 023°36'0 0.0
2017-Jan-14 08:33N 37°57' E 023°36'0 0.4
2017-Jan-14 07:34N 37°57' E 023°36'2 1.7
2017-Jan-14 06:34N 37°56' E 023°35'3 2.6
2017-Jan-14 05:33N 37°56' E 023°38'0 0.0
2017-Jan-14 04:33N 37°56' E 023°38'1 0.0
2017-Jan-13 12:34N 37°56' E 023°37'1 0.6
2017-Jan-13 11:34N 37°56' E 023°37'1 1.4
2017-Jan-13 10:34N 37°57' E 023°36'0 0.2
2017-Jan-13 09:34N 37°57' E 023°37'0 0.0
2017-Jan-13 08:33N 37°57' E 023°37'0 0.0
2017-Jan-13 07:33N 37°57' E 023°37'3 2.5
2017-Jan-13 06:34N 37°55' E 023°35'1 1.5
2017-Jan-13 05:33N 37°57' E 023°35'2 2.2
2017-Jan-13 04:34N 37°56' E 023°38'0 0.0
2017-Jan-12 15:34N 37°56' E 023°38'2 1.8
2017-Jan-12 14:33N 37°57' E 023°36'0 0.2
2017-Jan-12 13:33N 37°58' E 023°36'0 0.2
2017-Jan-12 12:33N 37°57' E 023°36'1 0.8
2017-Jan-12 11:33N 37°57' E 023°35'1 1.4
2017-Jan-12 10:33N 37°56' E 023°36'1 1.3
2017-Jan-12 09:33N 37°57' E 023°35'0 0.4
2017-Jan-12 08:33N 37°57' E 023°36'2 1.6
2017-Jan-12 07:33N 37°56' E 023°36'2 1.6
2017-Jan-12 06:33N 37°57' E 023°36'2 2.0
2017-Jan-12 05:33N 37°56' E 023°38'0 0.0
2017-Jan-12 04:33N 37°56' E 023°38'0 0.0
2017-Jan-11 14:05N 37°56' E 023°38'0 0.0
2017-Jan-11 13:33N 37°56' E 023°38'0 0.0
2017-Jan-11 12:33N 37°56' E 023°38'1 0.5
2017-Jan-11 11:33N 37°56' E 023°38'0 0.0
2017-Jan-11 10:33N 37°56' E 023°38'3 2.8
2017-Jan-11 09:33N 37°57' E 023°34'7 7.0
2017-Jan-11 08:33N 37°60' E 023°26'3 2.6
2017-Jan-11 07:33N 37°57' E 023°24'1 0.8
2017-Jan-11 06:33N 37°58' E 023°24'4 3.7
2017-Jan-11 05:33N 38°00' E 023°28'6 6.0
2017-Jan-11 04:33N 38°01' E 023°36'0 0.0
2017-Jan-11 03:33N 38°01' E 023°36'0 0.0
2017-Jan-11 02:34N 38°01' E 023°36'0 0.0
2017-Jan-11 01:33N 38°01' E 023°36'0 0.0
2017-Jan-11 00:33N 38°01' E 023°36'0 0.0
2017-Jan-10 23:34N 38°01' E 023°36'0 0.0
2017-Jan-10 22:33N 38°01' E 023°36'0 0.0
2017-Jan-10 21:33N 38°01' E 023°36'0 0.0
2017-Jan-10 20:33N 38°01' E 023°36'  

Dump ship's entire track history